Time;durP1;ratioP1;P1;durP2;ratioP2;P2;SDS_P1;SDS_P2;PMS_P1;PMS_P2;Temp;Humidity;BMP_temperature;BMP_pressure;BME280_temperature;BME280_humidity;BME280_pressure;Samples;Min_cycle;Max_cycle;Signal;HPM_P1;HPM_P2
2021/11/01 00:01:02;;;;;;;15.13;4.43;;;11.00;99.90;;;;;;5037325;28;20604;-73
2021/11/01 00:03:28;;;;;;;15.13;4.33;;;11.00;99.90;;;;;;5035825;28;20197;-73
2021/11/01 00:05:53;;;;;;;9.40;4.30;;;11.00;99.90;;;;;;5035261;28;20399;-73
2021/11/01 00:08:19;;;;;;;11.47;4.37;;;11.00;99.90;;;;;;5035201;28;20236;-73
2021/11/01 00:10:45;;;;;;;14.47;5.23;;;11.00;99.90;;;;;;5035253;28;20153;-73
2021/11/01 00:13:10;;;;;;;8.77;4.13;;;11.00;99.90;;;;;;5035019;28;20270;-73
2021/11/01 00:15:36;;;;;;;12.00;4.73;;;11.00;99.90;;;;;;5035132;28;20685;-72
2021/11/01 00:18:03;;;;;;;11.13;4.00;;;10.90;99.90;;;;;;5035018;28;20493;-73
2021/11/01 00:20:29;;;;;;;7.63;3.87;;;10.90;99.90;;;;;;5035685;28;20238;-73
2021/11/01 00:22:55;;;;;;;11.57;3.93;;;10.90;99.90;;;;;;5034686;28;20808;-73
2021/11/01 00:25:21;;;;;;;18.43;4.13;;;10.90;99.90;;;;;;5034423;28;20483;-73
2021/11/01 00:27:47;;;;;;;11.13;3.70;;;10.80;99.90;;;;;;5048465;28;20219;-73
2021/11/01 00:30:12;;;;;;;10.07;3.43;;;10.80;99.90;;;;;;5048500;28;20442;-73
2021/11/01 00:32:38;;;;;;;10.00;4.20;;;10.80;99.90;;;;;;5054674;28;20447;-73
2021/11/01 00:35:06;;;;;;;12.70;3.90;;;10.70;99.90;;;;;;5054768;28;20251;-73
2021/11/01 00:37:31;;;;;;;14.37;4.60;;;10.70;99.90;;;;;;5041396;28;20920;-72
2021/11/01 00:39:59;;;;;;;10.13;3.60;;;10.70;99.90;;;;;;5034526;28;20400;-73
2021/11/01 00:42:26;;;;;;;10.00;4.20;;;10.70;99.90;;;;;;5034426;28;20150;-73
2021/11/01 00:44:51;;;;;;;14.03;3.60;;;10.70;99.90;;;;;;5034676;28;20890;-73
2021/11/01 00:47:17;;;;;;;10.03;4.87;;;10.60;99.90;;;;;;5034479;28;20431;-73
2021/11/01 00:49:43;;;;;;;13.87;3.73;;;10.60;99.90;;;;;;5034674;28;20173;-73
2021/11/01 00:52:09;;;;;;;15.67;3.77;;;10.60;99.90;;;;;;5034156;28;20296;-73
2021/11/01 00:54:36;;;;;;;14.77;4.20;;;10.60;99.90;;;;;;5034821;28;20491;-73
2021/11/01 00:57:02;;;;;;;6.30;2.87;;;10.50;99.90;;;;;;5034406;28;20412;-73
2021/11/01 00:59:27;;;;;;;6.10;3.40;;;10.50;99.90;;;;;;5035223;28;20392;-73
2021/11/01 01:01:53;;;;;;;9.90;3.50;;;10.50;99.90;;;;;;5054048;28;20403;-73
2021/11/01 01:04:19;;;;;;;10.30;4.03;;;10.50;99.90;;;;;;5053511;28;20165;-73
2021/11/01 01:06:45;;;;;;;8.57;3.43;;;10.50;99.90;;;;;;5053768;28;20168;-73
2021/11/01 01:09:10;;;;;;;12.10;2.90;;;10.50;99.90;;;;;;5053795;28;20168;-73
2021/11/01 01:11:36;;;;;;;11.47;3.80;;;10.50;99.90;;;;;;5040205;28;20259;-73
2021/11/01 01:14:03;;;;;;;11.40;3.40;;;10.50;99.90;;;;;;5033925;28;20189;-73
2021/11/01 01:16:30;;;;;;;10.60;3.33;;;10.40;99.90;;;;;;5033800;28;20392;-72
2021/11/01 01:18:58;;;;;;;11.00;3.90;;;10.40;99.90;;;;;;5033569;28;20767;-73
2021/11/01 01:24:11;;;;;;;10.27;3.07;;;10.40;99.90;;;;;;5046771;28;20412;-74
2021/11/01 01:26:37;;;;;;;12.50;3.30;;;10.40;99.90;;;;;;5040277;28;20425;-73
2021/11/01 01:29:04;;;;;;;15.77;4.00;;;10.40;99.90;;;;;;5035639;28;20427;-73
2021/11/01 01:31:31;;;;;;;8.97;3.43;;;10.40;99.90;;;;;;5033935;28;20412;-72
2021/11/01 01:33:58;;;;;;;18.67;3.47;;;10.40;99.90;;;;;;5033480;28;20447;-74
2021/11/01 01:36:23;;;;;;;10.33;3.53;;;10.40;99.90;;;;;;5050868;28;20419;-73
2021/11/01 01:38:50;;;;;;;9.53;2.80;;;10.50;99.90;;;;;;5053259;28;20494;-72
2021/11/01 01:41:19;;;;;;;8.80;2.87;;;10.50;99.90;;;;;;5053543;28;20609;-73
2021/11/01 01:43:47;;;;;;;7.93;3.10;;;10.50;99.90;;;;;;5053357;28;20398;-72
2021/11/01 01:46:13;;;;;;;12.10;3.37;;;10.50;99.90;;;;;;5033789;28;20966;-73
2021/11/01 01:48:40;;;;;;;11.53;3.03;;;10.50;99.90;;;;;;5033261;28;20407;-73
2021/11/01 01:51:06;;;;;;;9.90;3.40;;;10.50;99.90;;;;;;5032877;28;20403;-73
2021/11/01 01:53:33;;;;;;;15.23;3.30;;;10.50;99.90;;;;;;5032999;28;20467;-73
2021/11/01 01:55:58;;;;;;;6.90;3.57;;;10.50;99.90;;;;;;5034137;28;20392;-73
2021/11/01 01:58:31;;;;;;;10.80;4.00;;;10.50;99.90;;;;;;5051843;28;20411;-74
2021/11/01 02:01:15;;;;;;;9.20;3.03;;;10.50;99.90;;;;;;5033325;28;20165;-73
2021/11/01 02:03:45;;;;;;;6.50;3.20;;;10.50;99.90;;;;;;5033359;28;20448;-73
2021/11/01 02:06:15;;;;;;;8.70;2.73;;;10.50;99.90;;;;;;5033318;28;20384;-73
2021/11/01 02:08:52;;;;;;;5.73;3.03;;;10.50;99.90;;;;;;5033147;28;20411;-72
2021/11/01 02:11:22;;;;;;;11.20;2.97;;;10.50;99.90;;;;;;5032751;28;20403;-73
2021/11/01 02:13:52;;;;;;;8.27;2.77;;;10.50;99.90;;;;;;5033019;28;20482;-73
2021/11/01 02:16:18;;;;;;;7.03;3.00;;;10.50;99.90;;;;;;5032835;28;20388;-73
2021/11/01 02:18:48;;;;;;;7.60;2.40;;;10.40;99.90;;;;;;5039114;28;20405;-73
2021/11/01 02:21:36;;;;;;;10.27;2.77;;;10.50;99.90;;;;;;5052772;28;20187;-73
2021/11/01 02:24:06;;;;;;;10.80;2.73;;;10.40;99.90;;;;;;5051820;28;20399;-73
2021/11/01 02:26:35;;;;;;;7.97;2.97;;;10.50;99.90;;;;;;5052423;28;20492;-73
2021/11/01 02:29:02;;;;;;;9.10;2.50;;;10.50;99.90;;;;;;5044233;28;20515;-74
2021/11/01 02:31:28;;;;;;;10.57;2.67;;;10.50;99.90;;;;;;5051287;28;20839;-73
2021/11/01 02:33:54;;;;;;;10.77;3.30;;;10.50;99.90;;;;;;5052400;28;20981;-73
2021/11/01 02:36:20;;;;;;;7.70;2.70;;;10.50;99.90;;;;;;5040847;28;20414;-73
2021/11/01 02:38:50;;;;;;;7.17;2.40;;;10.40;99.90;;;;;;5032465;28;20393;-73
2021/11/01 02:43:59;;;;;;;6.83;2.70;;;10.40;99.90;;;;;;5069904;28;20570;-73
2021/11/01 02:46:26;;;;;;;7.17;3.10;;;10.40;99.90;;;;;;5070079;28;20379;-73
2021/11/01 02:48:54;;;;;;;5.83;2.83;;;10.40;99.90;;;;;;5069435;28;20423;-72
2021/11/01 02:51:21;;;;;;;5.67;2.73;;;10.40;99.90;;;;;;5069447;28;20406;-73
2021/11/01 02:53:50;;;;;;;8.33;3.30;;;10.30;99.90;;;;;;5054086;28;20414;-73
2021/11/01 02:56:16;;;;;;;7.90;3.00;;;10.30;99.90;;;;;;5049199;28;20383;-73
2021/11/01 02:58:43;;;;;;;7.90;2.37;;;10.30;99.90;;;;;;5049696;28;20924;-73
2021/11/01 03:01:11;;;;;;;15.40;3.20;;;10.30;99.90;;;;;;5064035;28;20406;-73
2021/11/01 03:03:38;;;;;;;5.07;2.57;;;10.30;99.90;;;;;;5069336;28;20531;-73
2021/11/01 03:06:04;;;;;;;10.40;3.00;;;10.30;99.90;;;;;;5069251;28;20402;-73
2021/11/01 03:08:31;;;;;;;8.50;3.83;;;10.30;99.90;;;;;;5069581;28;20402;-73
2021/11/01 03:10:58;;;;;;;6.03;2.70;;;10.20;99.90;;;;;;5052146;28;20404;-73
2021/11/01 03:13:26;;;;;;;5.67;2.50;;;10.20;99.90;;;;;;5049199;28;20415;-73
2021/11/01 03:15:52;;;;;;;5.00;3.10;;;10.20;99.90;;;;;;5049418;28;20880;-73
2021/11/01 03:18:18;;;;;;;6.30;2.53;;;10.20;99.90;;;;;;5049108;28;20395;-73
2021/11/01 03:20:47;;;;;;;5.93;2.47;;;10.10;99.90;;;;;;5048956;28;20637;-73
2021/11/01 03:23:20;;;;;;;5.07;2.17;;;10.10;99.90;;;;;;5048953;28;20447;-73
2021/11/01 03:25:55;;;;;;;9.17;2.63;;;10.10;99.90;;;;;;5049336;28;20773;-73
2021/11/01 03:28:22;;;;;;;8.07;2.70;;;10.10;99.90;;;;;;5063418;28;20418;-73
2021/11/01 03:30:48;;;;;;;4.30;3.23;;;10.10;99.90;;;;;;5048731;28;20408;-73
2021/11/01 03:33:16;;;;;;;10.27;3.23;;;10.10;99.90;;;;;;5048651;28;20450;-73
2021/11/01 03:35:44;;;;;;;7.03;2.43;;;10.10;99.90;;;;;;5048808;28;20411;-74
2021/11/01 03:38:11;;;;;;;9.20;3.20;;;10.00;99.90;;;;;;5057866;28;20485;-73
2021/11/01 03:40:41;;;;;;;6.47;2.40;;;10.00;99.90;;;;;;5068503;28;20394;-73
2021/11/01 03:43:08;;;;;;;6.00;2.17;;;10.00;99.90;;;;;;5066503;28;20970;-72
2021/11/01 03:45:35;;;;;;;8.40;2.30;;;10.00;99.90;;;;;;5048981;28;20888;-82
2021/11/01 03:48:04;;;;;;;5.40;2.57;;;10.00;99.90;;;;;;5048574;28;20784;-81
2021/11/01 03:50:40;;;;;;;4.20;2.40;;;10.00;99.90;;;;;;5048578;28;20749;-80
2021/11/01 03:53:06;;;;;;;6.30;2.30;;;10.00;99.90;;;;;;5047803;28;20921;-81
2021/11/01 03:55:32;;;;;;;5.07;2.20;;;9.90;99.90;;;;;;5034822;28;20903;-81
2021/11/01 03:57:59;;;;;;;8.73;2.10;;;9.90;99.90;;;;;;5052317;28;20427;-81
2021/11/01 04:00:27;;;;;;;4.30;2.10;;;9.90;99.90;;;;;;5038863;28;20434;-82
2021/11/01 04:02:54;;;;;;;5.13;2.60;;;9.90;99.90;;;;;;5054824;28;20462;-81
2021/11/01 04:05:20;;;;;;;7.17;2.63;;;9.90;99.90;;;;;;5055014;28;20475;-82
2021/11/01 04:07:46;;;;;;;7.17;1.80;;;9.90;99.90;;;;;;5054872;28;20419;-82
2021/11/01 04:10:14;;;;;;;7.00;1.93;;;9.90;99.90;;;;;;5055367;28;20161;-81
2021/11/01 04:12:41;;;;;;;3.37;2.57;;;9.80;99.90;;;;;;5054747;28;20396;-82
2021/11/01 04:15:11;;;;;;;7.33;2.93;;;9.80;99.90;;;;;;5054634;28;20410;-82
2021/11/01 04:17:57;;;;;;;6.80;2.77;;;9.80;99.90;;;;;;5053960;28;20826;-82
2021/11/01 04:20:26;;;;;;;9.27;3.07;;;9.80;99.90;;;;;;5054547;28;20887;-81
2021/11/01 04:22:59;;;;;;;6.63;2.60;;;9.80;99.90;;;;;;5054314;28;20447;-82
2021/11/01 04:25:26;;;;;;;7.77;2.40;;;9.80;99.90;;;;;;5054307;28;20456;-82
2021/11/01 04:27:53;;;;;;;4.70;2.50;;;9.80;99.90;;;;;;5037431;28;20426;-82
2021/11/01 04:30:19;;;;;;;5.50;2.50;;;9.80;99.90;;;;;;5053832;28;20492;-82
2021/11/01 04:32:47;;;;;;;5.80;2.60;;;9.80;99.90;;;;;;5034277;28;20927;-81
2021/11/01 04:35:19;;;;;;;4.33;1.93;;;9.80;99.90;;;;;;5044880;28;20419;-82
2021/11/01 04:37:47;;;;;;;7.77;2.50;;;9.70;99.90;;;;;;5054383;28;20391;-81
2021/11/01 04:53:59;;;;;;;9.50;2.40;;;9.70;99.90;;;;;;5068458;28;20404;-69
2021/11/01 04:56:26;;;;;;;6.97;2.27;;;9.70;99.90;;;;;;5069215;28;20883;-69
2021/11/01 04:58:53;;;;;;;6.63;2.83;;;9.70;99.90;;;;;;5069074;28;20179;-69
2021/11/01 05:01:23;;;;;;;6.07;2.67;;;9.70;99.90;;;;;;5085169;28;20458;-69
2021/11/01 05:03:52;;;;;;;5.83;2.33;;;9.70;99.90;;;;;;5089470;28;20965;-70
2021/11/01 05:06:22;;;;;;;8.73;2.40;;;9.70;99.90;;;;;;5089258;28;20878;-68
2021/11/01 05:08:55;;;;;;;6.93;2.13;;;9.60;99.90;;;;;;5081840;28;20438;-69
2021/11/01 05:11:29;;;;;;;7.97;2.40;;;9.60;99.90;;;;;;5068875;28;20410;-68
2021/11/01 05:13:56;;;;;;;9.37;3.47;;;9.60;99.90;;;;;;5068848;28;20391;-70
2021/11/01 05:16:34;;;;;;;8.20;2.40;;;9.60;99.90;;;;;;5068638;28;20467;-69
2021/11/01 05:19:05;;;;;;;3.77;2.60;;;9.60;99.90;;;;;;5068637;28;20418;-69
2021/11/01 05:21:35;;;;;;;4.93;2.23;;;9.60;99.90;;;;;;5068571;28;20402;-68
2021/11/01 05:24:05;;;;;;;8.03;2.50;;;9.60;99.90;;;;;;5068567;28;20438;-68
2021/11/01 05:29:09;;;;;;;10.00;2.80;;;9.60;99.90;;;;;;5053467;28;20640;-69
2021/11/01 05:31:43;;;;;;;6.27;2.47;;;9.60;99.90;;;;;;5049629;28;20402;-69
2021/11/01 05:34:14;;;;;;;5.87;2.90;;;9.60;99.90;;;;;;5049537;28;20398;-69
2021/11/01 05:36:40;;;;;;;6.00;2.07;;;9.60;99.90;;;;;;5049341;28;20478;-69
2021/11/01 05:39:07;;;;;;;11.03;2.23;;;9.60;99.90;;;;;;5049629;28;20486;-69
2021/11/01 05:41:33;;;;;;;9.47;2.47;;;9.60;99.90;;;;;;5049130;28;20388;-69
2021/11/01 05:43:59;;;;;;;6.53;2.57;;;9.60;99.90;;;;;;5049113;28;20412;-70
2021/11/01 05:46:32;;;;;;;4.90;2.90;;;9.60;99.90;;;;;;5049173;28;20387;-69
2021/11/01 05:48:59;;;;;;;7.73;1.60;;;9.50;99.90;;;;;;5048959;28;20647;-69
2021/11/01 05:51:24;;;;;;;4.97;2.03;;;9.50;99.90;;;;;;5049065;28;20760;-69
2021/11/01 05:53:56;;;;;;;7.10;3.17;;;9.50;99.90;;;;;;5049031;28;20415;-70
2021/11/01 06:09:57;;;;;;;3.03;1.40;;;9.50;99.90;;;;;;5089619;27;20549;-70
2021/11/01 06:15:11;;;;;;;4.80;1.63;;;9.50;99.90;;;;;;5088795;28;20395;-69
2021/11/01 06:17:37;;;;;;;3.50;1.57;;;9.50;99.90;;;;;;5075517;28;20911;-70
2021/11/01 06:20:04;;;;;;;5.90;2.63;;;9.50;99.90;;;;;;5069262;28;20411;-69
2021/11/01 06:22:30;;;;;;;5.80;2.50;;;9.50;99.90;;;;;;5069143;28;20453;-69
2021/11/01 06:24:59;;;;;;;6.40;2.30;;;9.50;99.90;;;;;;5069413;28;20431;-69
2021/11/01 06:27:26;;;;;;;6.57;2.97;;;9.50;99.90;;;;;;5069148;28;20254;-70
2021/11/01 06:32:44;;;;;;;6.17;1.97;;;9.40;99.90;;;;;;5088224;28;20437;-70
2021/11/01 06:41:06;;;;;;;6.37;1.90;;;9.40;99.90;;;;;;5082049;28;20406;-68
2021/11/01 06:51:38;;;;;;;7.20;2.10;;;9.40;99.90;;;;;;5062426;28;20411;-69
2021/11/01 06:54:21;;;;;;;4.13;1.87;;;9.40;99.90;;;;;;5049383;28;20387;-69
2021/11/01 07:15:54;;;;;;;7.03;2.37;;;9.40;99.90;;;;;;5062042;28;20465;-68
2021/11/01 07:18:27;;;;;;;3.80;2.07;;;9.50;99.90;;;;;;5049275;28;20891;-68
2021/11/01 08:40:51;;;;;;;7.07;1.93;;;10.60;99.90;;;;;;5033982;28;20784;-68
2021/11/01 08:43:28;;;;;;;7.87;2.00;;;10.60;99.90;;;;;;5034815;28;20817;-68
2021/11/01 08:46:07;;;;;;;8.67;2.40;;;10.60;99.90;;;;;;5034705;28;20534;-68
2021/11/01 08:48:43;;;;;;;4.57;2.03;;;10.70;99.90;;;;;;5034746;28;20894;-68
2021/11/01 09:13:41;;;;;;;9.13;2.20;;;11.80;99.90;;;;;;5130472;27;20508;-68
2021/11/01 09:24:38;;;;;;;10.23;2.13;;;12.00;99.90;;;;;;5060230;28;20517;-68
2021/11/01 09:26:49;;;;;;;6.03;2.23;;;12.00;99.90;;;;;;5062219;28;20407;-69
2021/11/01 09:37:55;;;;;;;8.00;2.30;;;12.20;99.90;;;;;;5028453;28;20396;-69
2021/11/01 09:43:04;;;;;;;5.33;1.63;;;12.20;99.90;;;;;;5062022;28;20549;-69
2021/11/01 09:45:33;;;;;;;4.73;2.20;;;12.30;99.90;;;;;;5049193;28;20387;-69
2021/11/01 09:47:59;;;;;;;6.70;2.10;;;12.40;99.90;;;;;;5049096;28;20441;-69
2021/11/01 09:50:24;;;;;;;6.27;2.37;;;12.50;99.90;;;;;;5048973;28;20482;-68
2021/11/01 09:53:00;;;;;;;6.60;2.30;;;12.50;99.90;;;;;;5048967;28;20423;-68
2021/11/01 10:00:56;;;;;;;8.90;2.20;;;12.70;99.90;;;;;;5068113;28;20930;-69
2021/11/01 10:03:40;;;;;;;3.00;1.83;;;12.70;99.90;;;;;;5069098;28;20402;-69
2021/11/01 10:06:07;;;;;;;6.90;2.90;;;12.80;99.90;;;;;;5069073;28;20429;-68
2021/11/01 10:08:34;;;;;;;4.80;2.43;;;12.80;99.90;;;;;;5069281;28;20557;-69
2021/11/01 10:11:01;;;;;;;6.47;2.53;;;12.90;99.90;;;;;;5068994;28;20437;-69
2021/11/01 10:13:29;;;;;;;5.63;2.30;;;12.90;99.90;;;;;;5068939;28;20425;-69
2021/11/01 10:18:45;;;;;;;6.80;2.07;;;13.00;99.90;;;;;;5068210;28;20501;-69
2021/11/01 10:21:12;;;;;;;4.30;1.77;;;13.10;99.90;;;;;;5068594;28;20398;-70
2021/11/01 10:23:47;;;;;;;3.93;1.93;;;13.00;99.90;;;;;;5068981;28;20404;-69
2021/11/01 10:26:16;;;;;;;7.50;2.63;;;13.10;99.90;;;;;;5068830;28;20401;-70
2021/11/01 10:28:43;;;;;;;8.40;2.97;;;13.10;99.90;;;;;;5068686;28;20788;-70
2021/11/01 10:31:13;;;;;;;4.40;1.70;;;13.10;99.90;;;;;;5067985;28;20440;-70
2021/11/01 10:33:45;;;;;;;3.83;1.87;;;13.10;99.90;;;;;;5068670;28;20399;-70
2021/11/01 10:36:23;;;;;;;3.30;1.17;;;13.20;99.90;;;;;;5068654;28;20997;-69
2021/11/01 10:39:01;;;;;;;6.80;1.83;;;13.30;99.90;;;;;;5068542;28;20409;-69
2021/11/01 10:41:34;;;;;;;7.77;1.93;;;13.30;99.90;;;;;;5068237;28;20416;-69
2021/11/01 11:14:33;;;;;;;5.03;1.93;;;12.80;99.90;;;;;;5048318;28;20406;-70
2021/11/01 11:17:14;;;;;;;6.27;2.00;;;12.70;99.90;;;;;;5049110;28;20383;-69
2021/11/01 11:19:51;;;;;;;5.77;1.80;;;12.70;99.90;;;;;;5049323;28;20449;-70
2021/11/01 11:25:31;;;;;;;2.57;1.00;;;12.80;99.90;;;;;;5069206;28;20523;-70
2021/11/01 11:28:03;;;;;;;5.47;1.60;;;12.80;99.90;;;;;;5068324;28;20421;-69
2021/11/01 11:47:50;;;;;;;4.47;1.27;;;12.80;99.90;;;;;;5048502;28;20406;-69
2021/11/01 11:50:20;;;;;;;1.80;1.03;;;12.90;99.90;;;;;;5048191;28;20391;-69
2021/11/01 11:52:46;;;;;;;2.20;1.33;;;13.00;99.90;;;;;;5049138;28;20406;-69
2021/11/01 11:57:57;;;;;;;2.73;1.30;;;13.10;99.90;;;;;;5093337;27;20647;-70
2021/11/01 12:00:26;;;;;;;2.00;1.30;;;13.20;99.90;;;;;;5088966;28;20428;-70
2021/11/01 12:02:53;;;;;;;4.20;1.10;;;13.30;99.90;;;;;;5089546;28;20468;-69
2021/11/01 12:05:25;;;;;;;4.67;1.50;;;13.30;99.90;;;;;;5089335;28;20411;-70
2021/11/01 12:19:04;;;;;;;3.60;1.43;;;13.40;99.90;;;;;;5082638;28;20808;-69
2021/11/01 12:21:31;;;;;;;3.13;1.17;;;13.40;99.90;;;;;;5069442;28;20388;-69
2021/11/01 12:23:58;;;;;;;4.03;1.13;;;13.30;99.90;;;;;;5069189;28;20394;-69
2021/11/01 12:26:27;;;;;;;2.60;1.30;;;13.30;99.90;;;;;;5068986;28;20509;-67
2021/11/01 12:28:59;;;;;;;2.77;1.20;;;13.30;99.90;;;;;;5068948;28;20839;-68
2021/11/01 12:31:27;;;;;;;6.70;1.40;;;13.30;99.90;;;;;;5056145;28;20422;-68
2021/11/01 12:33:57;;;;;;;3.10;0.90;;;13.20;99.90;;;;;;5049223;28;20483;-68
2021/11/01 12:36:28;;;;;;;3.83;1.43;;;13.20;99.90;;;;;;5049108;28;20387;-69
2021/11/01 12:39:05;;;;;;;3.07;1.63;;;13.20;99.90;;;;;;5049231;28;20486;-70
2021/11/01 12:41:51;;;;;;;3.50;1.30;;;13.20;99.90;;;;;;5048966;28;20399;-69
2021/11/01 12:58:25;;;;;;;4.50;1.70;;;13.50;99.90;;;;;;5062383;28;20805;-70
2021/11/01 13:00:51;;;;;;;2.17;1.63;;;13.60;99.90;;;;;;5068431;28;20444;-69
2021/11/01 13:03:21;;;;;;;4.60;1.70;;;13.60;99.90;;;;;;5068398;28;20148;-69
2021/11/01 13:05:54;;;;;;;3.17;1.73;;;13.60;99.90;;;;;;5052766;28;20454;-69
2021/11/01 13:08:27;;;;;;;3.43;1.10;;;13.60;99.90;;;;;;5048330;28;20802;-69
2021/11/01 13:21:53;;;;;;;4.60;1.37;;;13.40;99.90;;;;;;5062602;28;20544;-69
2021/11/01 13:24:24;;;;;;;2.43;1.10;;;13.50;99.90;;;;;;5049438;28;20875;-68
2021/11/01 13:27:14;;;;;;;4.77;0.93;;;13.60;99.90;;;;;;5049357;28;20378;-68
2021/11/01 13:34:45;;;;;;;8.03;2.13;;;13.60;99.90;;;;;;5056406;28;20514;-69
2021/11/01 13:38:04;;;;;;;3.40;1.47;;;13.70;99.90;;;;;;5068247;28;20508;-69
2021/11/01 13:40:43;;;;;;;2.30;1.17;;;13.70;99.90;;;;;;5049670;28;20389;-68
2021/11/01 13:43:09;;;;;;;4.40;3.83;;;13.70;99.90;;;;;;5049492;28;20409;-68
2021/11/01 13:45:35;;;;;;;7.13;2.27;;;13.70;99.90;;;;;;5049316;28;20386;-68
2021/11/01 13:48:01;;;;;;;5.10;1.33;;;13.70;99.90;;;;;;5049329;28;20379;-68
2021/11/01 13:50:38;;;;;;;6.03;4.27;;;13.70;99.90;;;;;;5049401;28;20570;-70
2021/11/01 13:53:12;;;;;;;4.00;1.90;;;13.60;99.90;;;;;;5049134;28;20394;-69
2021/11/01 13:56:03;;;;;;;2.47;2.13;;;13.50;99.90;;;;;;5048973;28;20403;-70
2021/11/01 14:12:25;;;;;;;2.57;1.60;;;13.50;99.90;;;;;;5067013;28;20437;-70
2021/11/01 14:14:59;;;;;;;3.00;1.77;;;13.40;99.90;;;;;;5049326;28;20418;-68
2021/11/01 14:20:23;;;;;;;3.10;1.50;;;13.40;99.90;;;;;;5069456;28;20629;-70
2021/11/01 15:04:03;;;;;;;4.83;1.63;;;12.80;99.90;;;;;;5064638;28;20522;-69
2021/11/01 15:17:24;;;;;;;4.70;2.10;;;12.60;99.90;;;;;;5069370;28;20512;-69
2021/11/01 15:19:59;;;;;;;5.20;1.40;;;12.60;99.90;;;;;;5069117;28;20433;-69
2021/11/01 15:22:44;;;;;;;5.37;2.00;;;12.50;99.90;;;;;;5049643;28;20419;-69
2021/11/01 15:25:38;;;;;;;3.13;2.20;;;12.50;99.90;;;;;;5049134;28;20435;-70
2021/11/01 16:18:12;;;;;;;6.30;1.80;;;12.30;99.90;;;;;;5061848;28;20822;-69
2021/11/01 16:20:28;;;;;;;4.80;2.23;;;12.20;99.90;;;;;;5061808;28;20710;-70
2021/11/01 16:23:12;;;;;;;7.13;2.13;;;12.20;99.90;;;;;;5048653;28;20533;-70
2021/11/01 16:25:38;;;;;;;4.30;2.10;;;12.10;99.90;;;;;;5048536;28;20161;-69
2021/11/01 16:28:04;;;;;;;4.63;2.20;;;12.10;99.90;;;;;;5051014;28;20957;-69
2021/11/01 16:30:32;;;;;;;4.57;1.90;;;12.00;99.90;;;;;;5059048;28;20449;-70
2021/11/01 16:33:02;;;;;;;5.10;1.90;;;12.00;99.90;;;;;;5068607;28;20190;-68
2021/11/01 16:35:35;;;;;;;5.77;1.90;;;11.90;99.90;;;;;;5068467;28;20392;-69
2021/11/01 16:38:09;;;;;;;5.77;2.80;;;11.90;99.90;;;;;;5068360;28;20425;-68
2021/11/01 16:40:35;;;;;;;3.67;2.00;;;11.90;99.90;;;;;;5068298;28;20386;-68
2021/11/01 16:43:03;;;;;;;4.50;2.23;;;11.80;99.90;;;;;;5067870;28;20465;-69
2021/11/01 16:45:35;;;;;;;4.97;1.83;;;11.80;99.90;;;;;;5063146;28;20445;-69
2021/11/01 16:48:01;;;;;;;3.10;1.90;;;11.80;99.90;;;;;;5048208;28;20421;-68
2021/11/01 16:50:27;;;;;;;6.73;1.80;;;11.70;99.90;;;;;;5048223;28;20739;-70
2021/11/01 16:52:54;;;;;;;5.53;2.17;;;11.70;99.90;;;;;;5048104;28;20621;-69
2021/11/01 16:55:23;;;;;;;4.00;1.63;;;11.70;99.90;;;;;;5038316;28;20408;-68
2021/11/01 16:57:55;;;;;;;3.40;2.20;;;11.70;99.90;;;;;;5038584;28;20431;-68
2021/11/01 17:00:44;;;;;;;3.10;1.67;;;11.70;99.90;;;;;;5045788;28;20455;-69
2021/11/01 17:06:10;;;;;;;3.83;2.10;;;11.60;99.90;;;;;;5047711;28;20442;-69
2021/11/01 17:22:33;;;;;;;8.30;2.73;;;11.60;99.90;;;;;;5062343;28;20399;-69
2021/11/01 17:25:06;;;;;;;3.00;2.03;;;11.50;99.90;;;;;;5048988;28;20421;-68
2021/11/01 17:27:48;;;;;;;2.87;2.10;;;11.40;99.90;;;;;;5050256;28;20458;-69
2021/11/01 18:42:57;;;;;;;5.73;2.03;;;10.60;99.90;;;;;;5087479;28;20436;-70
2021/11/01 18:56:14;;;;;;;8.27;3.13;;;10.50;99.90;;;;;;5069322;28;20520;-69
2021/11/01 18:58:42;;;;;;;8.90;2.73;;;10.50;99.90;;;;;;5069282;28;20433;-69
2021/11/01 19:01:10;;;;;;;6.00;2.40;;;10.50;99.90;;;;;;5055648;28;20186;-69
2021/11/01 19:03:43;;;;;;;6.83;2.57;;;10.40;99.90;;;;;;5069495;28;20813;-70
2021/11/01 19:06:21;;;;;;;4.93;2.07;;;10.40;99.90;;;;;;5069234;28;20386;-68
2021/11/01 19:08:57;;;;;;;4.97;2.40;;;10.40;99.90;;;;;;5069384;28;20417;-69
2021/11/01 20:08:13;;;;;;;4.53;2.60;;;10.10;99.90;;;;;;5069373;28;20516;-69
2021/11/01 20:12:39;;;;;;;3.17;2.00;;;10.00;99.90;;;;;;5062477;28;20399;-70
2021/11/01 21:25:21;;;;;;;6.00;2.10;;;9.60;99.90;;;;;;5047211;28;20760;-69
2021/11/01 21:27:48;;;;;;;6.00;2.50;;;9.60;99.90;;;;;;5059124;28;20421;-69
2021/11/01 21:30:13;;;;;;;7.27;2.27;;;9.60;99.90;;;;;;5058876;28;20414;-69
2021/11/01 21:32:40;;;;;;;4.57;1.90;;;9.50;99.90;;;;;;5047189;28;20477;-69
2021/11/01 21:35:10;;;;;;;8.47;2.20;;;9.50;99.90;;;;;;5043912;28;20260;-68
2021/11/01 21:37:36;;;;;;;5.00;2.20;;;9.50;99.90;;;;;;5054412;28;20405;-69
2021/11/01 21:40:03;;;;;;;6.17;2.50;;;9.60;99.90;;;;;;5054364;28;20411;-69
2021/11/01 21:42:30;;;;;;;7.23;2.70;;;9.50;99.90;;;;;;5054352;28;20180;-69
2021/11/01 21:44:57;;;;;;;4.83;2.23;;;9.50;99.90;;;;;;5054749;28;20391;-68
2021/11/01 21:47:23;;;;;;;6.73;2.30;;;9.50;99.90;;;;;;5054395;28;20387;-68
2021/11/01 21:49:48;;;;;;;4.87;2.60;;;9.60;99.90;;;;;;5054252;28;20825;-69
2021/11/01 21:52:16;;;;;;;4.53;2.27;;;9.60;99.90;;;;;;5053373;28;20183;-69
2021/11/01 21:54:48;;;;;;;5.20;2.07;;;9.60;99.90;;;;;;5054464;28;20188;-70
2021/11/01 21:57:26;;;;;;;4.97;2.57;;;9.60;99.90;;;;;;5044602;28;20923;-69
2021/11/01 22:24:33;;;;;;;7.67;2.37;;;9.80;99.90;;;;;;5109743;27;21041;-68
2021/11/01 22:32:54;;;;;;;5.70;2.13;;;9.80;99.90;;;;;;5094807;28;20744;-69
2021/11/01 22:41:01;;;;;;;7.23;2.73;;;9.70;99.90;;;;;;5069233;28;20637;-69
2021/11/01 22:44:00;;;;;;;6.30;2.60;;;9.70;99.90;;;;;;5056201;28;20445;-69
2021/11/01 22:57:03;;;;;;;6.13;2.93;;;9.70;99.90;;;;;;5067942;28;20420;-69
2021/11/01 22:59:28;;;;;;;5.83;2.63;;;9.70;99.90;;;;;;5068136;28;20450;-68
2021/11/01 23:01:54;;;;;;;5.73;2.40;;;9.80;99.90;;;;;;5069048;28;20909;-69
2021/11/01 23:31:43;;;;;;;3.57;2.00;;;9.90;99.90;;;;;;5048095;28;20490;-70
2021/11/01 23:34:12;;;;;;;4.20;2.20;;;10.00;99.90;;;;;;5049487;28;20456;-68
2021/11/01 23:36:39;;;;;;;4.93;2.37;;;10.00;99.90;;;;;;5048783;28;20533;-68
2021/11/01 23:39:08;;;;;;;4.73;2.10;;;10.10;99.90;;;;;;5048846;28;20400;-68
2021/11/01 23:41:34;;;;;;;3.50;2.27;;;10.10;99.90;;;;;;5048459;28;20474;-68
2021/11/01 23:44:00;;;;;;;5.00;2.23;;;10.10;99.90;;;;;;5048703;28;20402;-68
2021/11/01 23:46:26;;;;;;;4.37;2.03;;;10.10;99.90;;;;;;5048902;28;20416;-69
2021/11/01 23:48:52;;;;;;;4.10;1.97;;;10.10;99.90;;;;;;5048571;28;20186;-68
2021/11/01 23:51:28;;;;;;;6.60;2.20;;;10.10;99.90;;;;;;5049153;28;20401;-68
2021/11/01 23:56:42;;;;;;;7.50;1.90;;;10.10;99.90;;;;;;5067627;28;20437;-69
2021/11/01 23:59:08;;;;;;;8.73;2.50;;;10.10;99.90;;;;;;5064475;28;20471;-68
